Time;durP1;ratioP1;P1;durP2;ratioP2;P2;SDS_P1;SDS_P2;PMS_P1;PMS_P2;Temp;Humidity;BMP_temperature;BMP_pressure;BME280_temperature;BME280_humidity;BME280_pressure;Samples;Min_cycle;Max_cycle;Signal;HPM_P1;HPM_P2
2022/05/12 00:01:54;;;;;;;8.02;1.50;;;11.60;99.90;;;;;;4992793;28;20054;-78
2022/05/12 00:04:20;;;;;;;6.95;1.25;;;11.60;99.90;;;;;;4992923;28;20053;-78
2022/05/12 00:06:46;;;;;;;;;;;11.50;99.90;;;;;;5004191;28;20054;-77
2022/05/12 00:09:12;;;;;;;3.15;0.93;;;11.40;99.90;;;;;;4993624;28;19926;-82
2022/05/12 00:11:38;;;;;;;2.63;0.80;;;11.40;99.90;;;;;;4991586;28;20047;-77
2022/05/12 00:14:03;;;;;;;3.83;1.35;;;11.40;99.90;;;;;;4993761;28;20043;-78
2022/05/12 00:16:29;;;;;;;4.00;1.33;;;11.30;99.90;;;;;;5007902;28;20129;-77
2022/05/12 00:18:56;;;;;;;4.10;0.90;;;11.30;99.90;;;;;;4977013;28;20113;-77
2022/05/12 00:21:22;;;;;;;2.45;1.08;;;11.20;99.90;;;;;;4991448;28;20046;-78
2022/05/12 00:23:56;;;;;;;6.03;1.38;;;11.20;99.90;;;;;;4993231;28;20058;-76
2022/05/12 00:26:26;;;;;;;3.13;1.00;;;11.10;99.90;;;;;;4974851;28;20561;-76
2022/05/12 00:28:52;;;;;;;5.78;1.20;;;11.10;99.90;;;;;;4993266;28;20093;-77
2022/05/12 00:31:18;;;;;;;1.23;1.02;;;11.10;99.90;;;;;;4992149;28;20109;-77
2022/05/12 00:33:44;;;;;;;2.13;1.05;;;11.00;99.90;;;;;;5010021;28;20077;-77
2022/05/12 00:36:10;;;;;;;2.60;0.90;;;11.00;99.90;;;;;;5008667;28;20494;-79
2022/05/12 00:38:36;;;;;;;;;;;10.90;99.90;;;;;;4992166;28;20089;-77
2022/05/12 00:41:02;;;;;;;3.72;1.10;;;10.80;99.90;;;;;;4993653;28;20028;-77
2022/05/12 00:43:46;;;;;;;3.90;1.25;;;10.80;99.90;;;;;;4994518;28;20144;-77
2022/05/12 00:46:24;;;;;;;2.88;1.15;;;10.70;99.90;;;;;;5011641;28;20088;-77
2022/05/12 00:48:51;;;;;;;2.13;1.00;;;10.70;99.90;;;;;;4993034;28;20061;-80
2022/05/12 00:51:39;;;;;;;4.28;1.17;;;10.70;99.90;;;;;;4998231;28;20509;-77
2022/05/12 00:54:30;;;;;;;2.17;0.98;;;10.60;99.90;;;;;;5011901;28;20125;-77
2022/05/12 00:56:57;;;;;;;4.25;1.40;;;10.60;99.90;;;;;;5011326;28;20557;-77
2022/05/12 00:59:28;;;;;;;3.92;1.30;;;10.50;99.90;;;;;;4988235;28;20395;-78
2022/05/12 01:01:55;;;;;;;2.53;1.10;;;10.50;99.90;;;;;;4995882;28;20069;-77
2022/05/12 01:04:22;;;;;;;2.38;1.10;;;10.50;99.90;;;;;;4997875;28;20050;-79
2022/05/12 01:06:48;;;;;;;2.15;1.30;;;10.40;99.90;;;;;;4991817;28;20128;-77
2022/05/12 01:09:14;;;;;;;4.07;0.93;;;10.40;99.90;;;;;;4992564;28;20054;-77
2022/05/12 01:11:40;;;;;;;3.95;1.08;;;10.30;99.90;;;;;;4991810;28;20053;-77
2022/05/12 01:14:07;;;;;;;5.25;1.30;;;10.30;99.90;;;;;;4992392;28;20046;-77
2022/05/12 01:16:50;;;;;;;1.02;0.93;;;10.30;99.90;;;;;;4992067;28;20059;-77
2022/05/12 01:19:37;;;;;;;4.72;1.40;;;10.30;99.90;;;;;;4993444;28;20055;-81
2022/05/12 01:22:06;;;;;;;2.00;1.17;;;10.20;99.90;;;;;;4999441;28;20065;-78
2022/05/12 01:24:42;;;;;;;3.88;1.42;;;10.20;99.90;;;;;;4999741;28;20065;-78
2022/05/12 01:27:20;;;;;;;2.70;1.10;;;10.10;99.90;;;;;;4991573;28;20058;-79
2022/05/12 01:29:57;;;;;;;1.08;0.95;;;10.00;99.90;;;;;;5000789;28;20049;-78
2022/05/12 01:32:26;;;;;;;2.65;1.08;;;10.40;99.90;;;;;;5011249;28;20082;-78
2022/05/12 01:34:53;;;;;;;2.45;1.02;;;10.00;99.90;;;;;;5009230;28;20046;-77
2022/05/12 01:37:20;;;;;;;3.53;1.17;;;10.00;99.90;;;;;;5010926;28;20076;-84
2022/05/12 01:39:46;;;;;;;5.43;1.10;;;9.90;99.90;;;;;;5012355;28;20129;-77
2022/05/12 01:42:12;;;;;;;1.65;0.90;;;9.90;99.90;;;;;;5010703;28;20125;-77
2022/05/12 01:44:39;;;;;;;2.38;1.00;;;9.90;99.90;;;;;;5009138;28;20456;-77
2022/05/12 01:47:06;;;;;;;4.18;1.02;;;9.90;99.90;;;;;;4997350;28;20050;-77
2022/05/12 01:49:32;;;;;;;4.07;1.30;;;9.80;99.90;;;;;;5011210;28;20518;-77
2022/05/12 01:52:00;;;;;;;3.97;1.13;;;9.80;99.90;;;;;;5011253;28;20080;-77
2022/05/12 01:54:27;;;;;;;3.30;1.00;;;9.80;99.90;;;;;;5011097;28;20129;-78
2022/05/12 01:56:53;;;;;;;1.98;1.00;;;9.80;99.90;;;;;;5010455;28;20053;-77
2022/05/12 01:59:19;;;;;;;1.77;1.00;;;9.80;99.90;;;;;;4995189;28;20118;-77
2022/05/12 02:01:47;;;;;;;4.30;1.20;;;9.70;99.90;;;;;;4996495;28;20063;-77
2022/05/12 02:04:13;;;;;;;2.67;1.20;;;9.70;99.90;;;;;;4992850;28;20054;-77
2022/05/12 02:06:39;;;;;;;2.95;1.42;;;9.70;99.90;;;;;;4990543;28;20054;-77
2022/05/12 02:09:07;;;;;;;2.08;1.30;;;9.60;99.90;;;;;;4991558;28;20082;-77
2022/05/12 02:11:32;;;;;;;1.92;1.13;;;9.60;99.90;;;;;;5003038;28;20094;-77
2022/05/12 02:13:59;;;;;;;3.13;1.05;;;9.60;99.90;;;;;;5011373;28;20057;-77
2022/05/12 02:16:25;;;;;;;4.47;1.25;;;9.50;99.90;;;;;;5008383;28;20053;-81
2022/05/12 02:18:54;;;;;;;3.63;1.23;;;9.60;99.90;;;;;;4975486;28;20093;-77
2022/05/12 02:21:20;;;;;;;4.32;1.55;;;9.50;99.90;;;;;;4990971;28;20419;-77
2022/05/12 02:23:46;;;;;;;5.55;1.80;;;9.50;99.90;;;;;;5003650;28;20054;-79
2022/05/12 02:26:13;;;;;;;2.08;1.40;;;9.50;99.90;;;;;;4990333;28;20052;-79
2022/05/12 02:28:39;;;;;;;;;;;9.50;99.90;;;;;;4994309;28;20081;-76
2022/05/12 02:31:04;;;;;;;8.52;1.42;;;9.40;99.90;;;;;;4991063;28;19976;-77
2022/05/12 02:33:30;;;;;;;4.45;1.27;;;9.40;99.90;;;;;;4990134;28;20038;-77
2022/05/12 02:35:56;;;;;;;5.05;1.50;;;9.40;99.90;;;;;;4996640;28;20077;-76
2022/05/12 02:38:22;;;;;;;4.63;1.77;;;9.40;99.90;;;;;;4990369;28;20065;-77
2022/05/12 02:40:48;;;;;;;;;;;9.40;99.90;;;;;;4989637;28;20078;-77
2022/05/12 02:43:23;;;;;;;3.95;1.38;;;9.30;99.90;;;;;;5007556;28;19953;-76
2022/05/12 02:45:53;;;;;;;2.25;1.40;;;9.30;99.90;;;;;;5009449;28;20127;-76
2022/05/12 02:48:26;;;;;;;4.95;1.58;;;9.20;99.90;;;;;;5010666;28;20064;-76
2022/05/12 02:50:52;;;;;;;3.30;1.38;;;9.20;99.90;;;;;;4994387;28;20073;-77
2022/05/12 02:53:18;;;;;;;;;;;9.30;99.90;;;;;;4990876;28;20045;-77
2022/05/12 02:55:44;;;;;;;3.45;1.10;;;9.20;99.90;;;;;;4993159;28;19925;-76
2022/05/12 02:58:11;;;;;;;2.38;1.60;;;9.10;99.90;;;;;;5009714;28;20525;-77
2022/05/12 03:00:37;;;;;;;2.92;1.48;;;9.50;99.90;;;;;;5009963;28;20077;-76
2022/05/12 03:03:05;;;;;;;2.08;1.50;;;9.00;99.90;;;;;;5010346;28;20498;-78
2022/05/12 03:05:31;;;;;;;2.42;1.40;;;9.00;99.90;;;;;;5008990;28;20491;-77
2022/05/12 03:07:57;;;;;;;2.55;1.58;;;9.10;99.90;;;;;;4992275;28;20085;-76
2022/05/12 03:10:23;;;;;;;5.80;1.83;;;8.90;99.90;;;;;;5009356;28;20392;-77
2022/05/12 03:12:50;;;;;;;6.13;1.83;;;8.80;99.90;;;;;;5009260;28;20049;-76
2022/05/12 03:15:17;;;;;;;6.38;1.92;;;8.80;99.90;;;;;;5004054;28;20050;-76
2022/05/12 03:17:43;;;;;;;3.92;1.63;;;8.70;99.90;;;;;;5004062;28;20049;-77
2022/05/12 03:20:12;;;;;;;7.70;1.77;;;8.70;99.90;;;;;;5009667;28;20487;-76
2022/05/12 03:22:39;;;;;;;3.75;1.80;;;8.60;99.90;;;;;;5009222;28;20046;-76
2022/05/12 03:25:06;;;;;;;3.05;1.67;;;8.60;99.90;;;;;;5011291;28;20086;-76
2022/05/12 03:27:32;;;;;;;2.72;1.45;;;8.50;99.90;;;;;;5005060;28;20176;-77
2022/05/12 03:29:58;;;;;;;5.50;1.70;;;8.50;99.90;;;;;;5004569;28;20497;-76
2022/05/12 03:32:23;;;;;;;4.82;1.67;;;8.50;99.90;;;;;;5008645;28;20084;-76
2022/05/12 03:34:49;;;;;;;2.95;1.67;;;8.40;99.90;;;;;;5009107;28;20061;-76
2022/05/12 03:37:16;;;;;;;2.05;1.50;;;8.40;99.90;;;;;;5008972;28;20120;-76
2022/05/12 03:39:43;;;;;;;6.93;1.80;;;8.40;99.90;;;;;;4999448;28;20062;-76
2022/05/12 03:42:15;;;;;;;6.28;1.70;;;8.50;99.90;;;;;;4989131;28;20092;-76
2022/05/12 03:44:47;;;;;;;3.10;1.60;;;8.50;99.90;;;;;;4974597;28;20061;-77
2022/05/12 03:47:20;;;;;;;3.20;1.55;;;8.40;99.90;;;;;;4999683;28;20050;-76
2022/05/12 03:49:51;;;;;;;2.55;1.55;;;8.40;99.90;;;;;;5008980;28;20423;-77
2022/05/12 03:52:18;;;;;;;4.10;1.60;;;8.50;99.90;;;;;;5009595;28;20491;-76
2022/05/12 03:54:44;;;;;;;3.00;1.60;;;8.50;99.90;;;;;;5009300;28;20073;-76
2022/05/12 03:57:12;;;;;;;4.57;1.60;;;8.50;99.90;;;;;;5008748;28;20080;-76
2022/05/12 03:59:38;;;;;;;5.80;1.77;;;8.50;99.90;;;;;;5009541;28;20050;-77
2022/05/12 04:02:09;;;;;;;5.28;1.73;;;8.50;99.90;;;;;;5009782;28;20479;-77
2022/05/12 04:04:35;;;;;;;4.35;1.50;;;8.60;99.90;;;;;;5009234;28;20487;-76
2022/05/12 04:07:01;;;;;;;7.35;1.67;;;8.50;99.90;;;;;;4992925;28;20081;-77
2022/05/12 04:09:28;;;;;;;2.75;1.50;;;8.40;99.90;;;;;;4994325;28;20483;-77
2022/05/12 04:11:54;;;;;;;4.18;1.75;;;8.70;99.90;;;;;;5011615;28;20046;-77
2022/05/12 04:14:21;;;;;;;;;;;8.30;99.90;;;;;;4998062;28;20510;-76
2022/05/12 04:16:46;;;;;;;4.32;1.90;;;8.40;99.90;;;;;;4992804;28;20322;-77
2022/05/12 04:19:13;;;;;;;4.18;2.00;;;8.40;99.90;;;;;;4993515;28;20133;-77
2022/05/12 04:21:39;;;;;;;7.18;2.00;;;8.30;99.90;;;;;;4992641;28;20690;-77
2022/05/12 04:24:06;;;;;;;3.50;1.70;;;8.40;99.90;;;;;;4997531;28;20057;-77
2022/05/12 04:26:37;;;;;;;9.27;2.08;;;8.40;99.90;;;;;;4991554;28;20064;-77
2022/05/12 04:29:04;;;;;;;5.25;1.95;;;8.50;99.90;;;;;;4993122;28;20674;-77
2022/05/12 04:31:29;;;;;;;7.25;2.30;;;8.50;99.90;;;;;;4993376;28;20093;-77
2022/05/12 04:36:40;;;;;;;6.70;2.38;;;8.70;99.90;;;;;;5011085;28;20104;-76
2022/05/12 04:39:06;;;;;;;11.18;3.05;;;8.80;99.90;;;;;;4983528;28;20062;-78
2022/05/12 04:41:32;;;;;;;8.30;2.70;;;8.90;99.90;;;;;;4991390;28;20061;-78
2022/05/12 04:43:58;;;;;;;6.78;2.15;;;8.90;99.90;;;;;;4992178;28;20093;-77
2022/05/12 04:46:25;;;;;;;9.30;2.75;;;9.10;99.90;;;;;;4999111;28;20303;-77
2022/05/12 04:48:51;;;;;;;8.40;2.78;;;9.10;99.90;;;;;;4992239;28;20085;-78
2022/05/12 04:51:18;;;;;;;8.75;3.00;;;9.20;99.90;;;;;;5002977;28;20081;-77
2022/05/12 04:53:44;;;;;;;6.50;2.78;;;9.20;99.90;;;;;;4979285;28;20042;-78
2022/05/12 04:56:10;;;;;;;12.10;3.00;;;9.30;99.90;;;;;;4994481;28;20064;-77
2022/05/12 04:58:36;;;;;;;9.40;3.20;;;9.30;99.90;;;;;;5011360;28;20057;-77
2022/05/12 05:01:01;;;;;;;11.80;3.05;;;9.30;99.90;;;;;;5008086;28;20052;-77
2022/05/12 05:03:27;;;;;;;10.68;3.35;;;9.40;99.90;;;;;;5006371;28;20068;-77
2022/05/12 05:05:53;;;;;;;16.02;3.33;;;9.50;99.90;;;;;;5010300;28;20049;-77
2022/05/12 05:08:21;;;;;;;9.32;3.63;;;9.40;99.90;;;;;;5005128;28;20046;-78
2022/05/12 05:10:48;;;;;;;15.00;3.50;;;9.50;99.90;;;;;;5009589;28;20054;-78
2022/05/12 05:13:15;;;;;;;9.40;3.50;;;9.50;99.90;;;;;;5011880;28;20057;-77
2022/05/12 05:15:41;;;;;;;9.25;3.70;;;9.50;99.90;;;;;;5011000;28;20057;-80
2022/05/12 05:18:11;;;;;;;9.48;3.53;;;9.60;99.90;;;;;;4995368;28;20057;-80
2022/05/12 05:20:37;;;;;;;13.23;3.55;;;9.60;99.90;;;;;;5009476;28;20483;-78
2022/05/12 05:23:02;;;;;;;9.43;3.75;;;9.60;99.90;;;;;;4992872;28;20049;-78
2022/05/12 05:25:31;;;;;;;12.43;3.83;;;9.70;99.90;;;;;;5009961;28;20073;-82
2022/05/12 05:27:57;;;;;;;12.23;3.80;;;9.70;99.90;;;;;;4994184;28;20441;-79
2022/05/12 05:30:25;;;;;;;11.40;3.65;;;9.80;99.90;;;;;;4981066;28;20053;-77
2022/05/12 05:32:51;;;;;;;10.55;4.05;;;9.90;99.90;;;;;;5005071;28;20056;-78
2022/05/12 05:35:18;;;;;;;8.40;3.55;;;9.90;99.90;;;;;;4994357;28;20050;-76
2022/05/12 05:37:45;;;;;;;12.25;4.32;;;9.90;99.90;;;;;;4994499;28;20065;-81
2022/05/12 05:40:14;;;;;;;8.77;3.28;;;10.00;99.90;;;;;;4995659;28;20153;-80
2022/05/12 05:42:41;;;;;;;8.70;3.78;;;10.00;99.90;;;;;;4990307;28;20054;-77
2022/05/12 05:45:11;;;;;;;8.70;4.07;;;10.10;99.90;;;;;;4995955;28;20058;-77
2022/05/12 05:47:39;;;;;;;11.65;4.20;;;10.10;99.90;;;;;;5003196;28;20481;-77
2022/05/12 05:50:08;;;;;;;8.82;4.00;;;10.20;99.90;;;;;;5009402;28;20053;-79
2022/05/12 05:55:19;;;;;;;10.07;4.18;;;10.30;99.90;;;;;;5001929;28;20124;-78
2022/05/12 05:57:44;;;;;;;11.38;4.68;;;10.40;99.90;;;;;;4989135;28;20142;-82
2022/05/12 06:00:12;;;;;;;16.40;4.63;;;10.50;99.90;;;;;;4974570;28;20057;-78
2022/05/12 06:02:38;;;;;;;13.27;4.00;;;10.60;99.90;;;;;;4994883;28;20103;-78
2022/05/12 06:05:05;;;;;;;14.48;4.65;;;10.60;99.90;;;;;;5009872;28;20054;-79
2022/05/12 06:07:35;;;;;;;15.18;4.90;;;10.70;99.90;;;;;;5010273;28;20049;-79
2022/05/12 06:10:01;;;;;;;14.63;4.47;;;10.80;99.90;;;;;;5010205;28;20050;-78
2022/05/12 06:12:27;;;;;;;12.18;4.80;;;10.80;99.90;;;;;;4992969;28;20062;-78
2022/05/12 06:14:53;;;;;;;;;;;10.90;99.90;;;;;;4981688;28;20054;-78
2022/05/12 06:17:19;;;;;;;15.18;5.25;;;11.00;99.90;;;;;;4990959;28;20451;-79
2022/05/12 06:19:44;;;;;;;13.00;4.63;;;11.10;99.90;;;;;;4997766;28;20128;-80
2022/05/12 06:22:10;;;;;;;11.00;4.43;;;11.20;99.90;;;;;;4996312;28;20576;-80
2022/05/12 06:24:37;;;;;;;17.52;4.90;;;11.20;99.90;;;;;;5009206;28;20042;-79
2022/05/12 06:27:03;;;;;;;10.27;4.55;;;11.30;99.90;;;;;;4992203;28;20053;-80
2022/05/12 06:29:29;;;;;;;14.38;5.22;;;11.40;99.90;;;;;;4994084;28;20103;-82
2022/05/12 06:31:55;;;;;;;9.80;4.28;;;11.40;99.90;;;;;;4992344;28;20061;-79
2022/05/12 06:34:20;;;;;;;17.33;4.93;;;11.50;99.90;;;;;;4989602;28;20053;-77
2022/05/12 06:36:46;;;;;;;12.18;4.15;;;11.50;99.90;;;;;;4993966;28;20503;-77
2022/05/12 06:39:12;;;;;;;15.45;4.40;;;11.60;99.90;;;;;;4981142;28;20208;-79
2022/05/12 06:41:38;;;;;;;16.17;5.38;;;11.60;99.90;;;;;;4972909;28;20053;-78
2022/05/12 06:44:04;;;;;;;9.13;4.72;;;11.60;99.90;;;;;;5006899;28;20053;-79
2022/05/12 06:46:30;;;;;;;15.68;5.35;;;11.70;99.90;;;;;;5009584;28;20148;-79
2022/05/12 06:48:56;;;;;;;10.88;3.97;;;11.80;99.90;;;;;;5009542;28;20137;-80
2022/05/12 06:51:22;;;;;;;11.85;4.22;;;11.80;99.90;;;;;;5009010;28;20049;-80
2022/05/12 06:53:47;;;;;;;13.35;3.80;;;11.90;99.90;;;;;;5008261;28;20132;-79
2022/05/12 06:56:13;;;;;;;10.20;4.20;;;11.90;99.90;;;;;;4997130;28;20050;-81
2022/05/12 06:58:39;;;;;;;9.65;3.92;;;12.00;99.90;;;;;;5008277;28;20050;-78
2022/05/12 07:01:06;;;;;;;8.48;3.90;;;12.00;99.90;;;;;;4999655;28;20169;-82
2022/05/12 07:03:32;;;;;;;11.07;4.22;;;12.10;99.90;;;;;;4991717;28;20050;-84
2022/05/12 07:05:58;;;;;;;;;;;12.20;99.90;;;;;;4990078;28;20049;-82
2022/05/12 07:08:27;;;;;;;6.30;3.22;;;12.30;99.90;;;;;;4974907;28;20310;-80
2022/05/12 07:10:53;;;;;;;11.63;4.07;;;12.30;99.90;;;;;;4990650;28;20385;-79
2022/05/12 07:13:20;;;;;;;10.48;3.60;;;12.40;99.90;;;;;;4991204;28;20053;-77
2022/05/12 07:15:48;;;;;;;11.50;3.65;;;12.40;99.90;;;;;;4991775;28;20057;-77
2022/05/12 07:18:15;;;;;;;9.82;3.22;;;12.50;99.90;;;;;;4990356;28;20086;-77
2022/05/12 07:28:53;;;;;;;9.18;3.13;;;12.70;99.90;;;;;;4989899;28;20125;-80
2022/05/12 07:31:20;;;;;;;8.98;3.45;;;12.80;99.90;;;;;;4962969;28;20060;-80
2022/05/12 07:33:47;;;;;;;5.88;3.03;;;12.80;99.90;;;;;;4993624;28;20057;-80
2022/05/12 07:36:34;;;;;;;6.53;2.72;;;12.90;99.90;;;;;;5001803;28;20153;-80
2022/05/12 07:39:00;;;;;;;6.60;2.58;;;13.00;99.90;;;;;;4991626;28;20431;-81
2022/05/12 07:41:27;;;;;;;5.28;2.60;;;13.10;99.90;;;;;;4997559;28;20086;-81
2022/05/12 07:43:54;;;;;;;6.25;2.63;;;13.20;99.90;;;;;;5000678;28;20085;-85
2022/05/12 07:46:24;;;;;;;7.25;2.92;;;13.20;99.90;;;;;;4976161;28;20130;-82
2022/05/12 07:48:51;;;;;;;6.32;2.60;;;13.30;99.90;;;;;;5002489;28;20050;-81
2022/05/12 07:51:18;;;;;;;7.57;3.20;;;13.30;99.90;;;;;;5025442;28;20121;-80
2022/05/12 07:53:47;;;;;;;9.88;2.78;;;13.40;99.90;;;;;;4982974;28;20046;-81
2022/05/12 07:56:17;;;;;;;5.38;2.45;;;13.50;99.90;;;;;;5005741;28;20149;-80
2022/05/12 07:58:43;;;;;;;7.22;2.83;;;13.60;99.90;;;;;;4994994;28;20050;-80
2022/05/12 08:01:10;;;;;;;9.20;3.03;;;13.60;99.90;;;;;;5001769;28;20053;-82
2022/05/12 08:03:37;;;;;;;6.35;2.30;;;13.70;99.90;;;;;;5006098;28;20060;-79
2022/05/12 08:06:03;;;;;;;4.75;2.20;;;13.80;99.90;;;;;;4985709;28;20054;-80
2022/05/12 08:08:29;;;;;;;;;;;13.90;99.90;;;;;;4997000;28;20108;-81
2022/05/12 08:10:57;;;;;;;8.43;2.92;;;13.90;99.90;;;;;;4991902;28;19926;-82
2022/05/12 08:13:25;;;;;;;9.68;2.55;;;14.00;99.90;;;;;;4992471;28;20460;-79
2022/05/12 08:15:52;;;;;;;4.78;2.00;;;14.10;99.90;;;;;;4992660;28;20125;-79
2022/05/12 08:18:21;;;;;;;4.65;2.20;;;14.10;99.90;;;;;;4992313;28;20050;-76
2022/05/12 08:20:49;;;;;;;4.68;2.25;;;14.00;99.90;;;;;;4991528;28;20054;-79
2022/05/12 08:23:15;;;;;;;5.07;2.33;;;14.10;99.90;;;;;;5001341;28;20081;-79
2022/05/12 08:25:42;;;;;;;5.95;2.53;;;14.10;99.90;;;;;;5011096;28;20046;-80
2022/05/12 08:28:09;;;;;;;6.70;2.20;;;14.30;99.90;;;;;;4993200;28;20058;-81
2022/05/12 08:30:35;;;;;;;3.67;1.95;;;14.30;99.90;;;;;;4992456;28;20066;-81
2022/05/12 08:33:01;;;;;;;;;;;14.60;99.90;;;;;;5007518;28;20050;-81
2022/05/12 08:35:27;;;;;;;5.30;2.40;;;14.60;99.90;;;;;;5010637;28;20406;-78
2022/05/12 08:37:54;;;;;;;3.50;1.92;;;14.60;99.90;;;;;;5011429;28;20507;-84
2022/05/12 08:40:44;;;;;;;8.15;2.33;;;14.60;99.90;;;;;;4978988;28;20076;-82
2022/05/12 08:43:17;;;;;;;6.35;1.95;;;14.70;99.90;;;;;;5010460;28;20388;-81
2022/05/12 08:45:45;;;;;;;4.53;1.95;;;14.80;99.90;;;;;;4989532;28;20050;-81
2022/05/12 08:48:14;;;;;;;5.38;2.00;;;14.90;99.90;;;;;;5008534;28;20056;-80
2022/05/12 08:50:40;;;;;;;3.90;2.05;;;15.00;99.90;;;;;;4995069;28;20046;-80
2022/05/12 08:53:18;;;;;;;3.20;1.40;;;15.00;99.90;;;;;;5011550;28;20149;-82
2022/05/12 08:55:52;;;;;;;2.83;1.50;;;15.10;99.90;;;;;;5010185;28;20177;-82
2022/05/12 08:58:22;;;;;;;4.85;1.77;;;15.10;99.90;;;;;;5011222;28;20495;-81
2022/05/12 09:01:06;;;;;;;4.97;1.75;;;15.30;99.90;;;;;;5011811;28;20041;-81
2022/05/12 09:04:01;;;;;;;5.45;1.65;;;15.40;99.90;;;;;;4991005;28;20090;-81
2022/05/12 09:06:37;;;;;;;5.00;1.70;;;15.50;99.90;;;;;;4984562;28;20061;-80
2022/05/12 09:09:22;;;;;;;2.85;1.75;;;15.60;99.90;;;;;;5006279;28;20101;-86
2022/05/12 09:12:05;;;;;;;3.53;1.92;;;15.70;99.90;;;;;;5010884;28;20046;-82
2022/05/12 09:14:51;;;;;;;4.07;1.60;;;15.70;99.90;;;;;;5011830;28;20053;-81
2022/05/12 09:17:22;;;;;;;3.72;1.70;;;15.70;99.90;;;;;;5011531;28;20399;-81
2022/05/12 09:19:48;;;;;;;3.40;1.70;;;15.70;99.90;;;;;;5012180;28;20509;-83
2022/05/12 09:22:22;;;;;;;3.20;1.42;;;15.60;99.90;;;;;;4994774;28;20046;-80
2022/05/12 09:24:48;;;;;;;5.22;1.50;;;15.50;99.90;;;;;;4996389;28;20081;-81
2022/05/12 09:27:14;;;;;;;6.47;1.70;;;15.30;99.90;;;;;;4993991;28;20116;-81
2022/05/12 09:29:49;;;;;;;2.72;1.50;;;15.30;99.90;;;;;;5011616;28;20084;-81
2022/05/12 09:32:17;;;;;;;5.50;2.03;;;15.40;99.90;;;;;;5010099;28;20050;-76
2022/05/12 09:34:46;;;;;;;6.00;2.17;;;15.50;99.90;;;;;;5000255;28;20044;-80
2022/05/12 09:37:28;;;;;;;4.35;1.77;;;15.60;99.90;;;;;;5001657;28;20502;-79
2022/05/12 09:39:57;;;;;;;2.40;1.48;;;15.80;99.90;;;;;;5010872;28;20195;-77
2022/05/12 09:42:29;;;;;;;2.60;1.25;;;15.80;99.90;;;;;;5006061;28;20092;-78
2022/05/12 09:45:01;;;;;;;7.20;1.60;;;15.80;99.90;;;;;;5010459;28;20445;-79
2022/05/12 09:47:28;;;;;;;4.72;1.73;;;15.90;99.90;;;;;;4999225;28;20487;-79
2022/05/12 09:50:17;;;;;;;3.17;1.70;;;16.00;99.90;;;;;;5009415;28;20058;-79
2022/05/12 09:53:05;;;;;;;3.80;1.70;;;16.00;99.90;;;;;;4997496;28;20092;-77
2022/05/12 09:55:37;;;;;;;4.95;1.58;;;16.10;99.90;;;;;;4997641;28;20092;-77
2022/05/12 09:58:25;;;;;;;5.88;1.33;;;16.10;99.90;;;;;;5007203;28;20486;-80
2022/05/12 10:01:11;;;;;;;6.38;1.35;;;16.20;99.90;;;;;;4990767;28;20484;-78
2022/05/12 10:09:23;;;;;;;4.07;1.25;;;16.10;99.90;;;;;;5007966;28;20491;-80
2022/05/12 10:12:17;;;;;;;2.75;1.00;;;16.20;99.90;;;;;;4996924;28;20487;-78
2022/05/12 10:14:54;;;;;;;3.08;1.10;;;16.30;99.90;;;;;;5010245;28;20053;-78
2022/05/12 10:17:33;;;;;;;4.00;1.15;;;16.40;99.90;;;;;;5010402;28;20066;-80
2022/05/12 10:20:08;;;;;;;3.80;1.00;;;16.50;99.90;;;;;;4993629;28;20112;-78
2022/05/12 10:23:05;;;;;;;2.60;1.33;;;16.50;99.90;;;;;;5009792;28;20117;-79
2022/05/12 10:25:56;;;;;;;3.53;1.17;;;16.60;99.90;;;;;;4993718;28;20144;-80
2022/05/12 10:28:42;;;;;;;5.10;1.45;;;16.60;99.90;;;;;;5003061;28;20103;-78
2022/05/12 10:31:14;;;;;;;5.05;1.02;;;16.70;99.90;;;;;;5001194;28;20039;-79
2022/05/12 10:33:42;;;;;;;1.85;1.05;;;16.80;99.90;;;;;;4981776;28;20053;-78
2022/05/12 10:36:30;;;;;;;4.88;1.17;;;16.90;99.90;;;;;;4984509;28;20104;-79
2022/05/12 10:39:05;;;;;;;3.65;1.38;;;16.90;99.90;;;;;;5029296;28;20062;-80
2022/05/12 10:41:36;;;;;;;1.67;0.95;;;16.80;99.90;;;;;;5021455;28;20049;-79
2022/05/12 10:44:23;;;;;;;2.10;0.93;;;16.70;99.90;;;;;;5022699;28;20068;-81
2022/05/12 10:47:14;;;;;;;1.23;1.10;;;16.80;98.20;;;;;;5023811;28;20045;-82
2022/05/12 10:49:43;;;;;;;1.13;0.90;;;16.90;97.60;;;;;;4993490;28;20049;-79
2022/05/12 10:52:31;;;;;;;1.80;1.10;;;17.00;96.30;;;;;;4992047;28;20381;-79
2022/05/12 10:55:35;;;;;;;4.85;1.10;;;17.10;96.90;;;;;;4992389;28;20480;-79
2022/05/12 10:58:22;;;;;;;3.30;0.73;;;17.10;99.90;;;;;;4998554;28;20068;-80
2022/05/12 11:01:15;;;;;;;5.28;0.90;;;17.20;97.90;;;;;;4997882;28;20046;-79
2022/05/12 11:03:57;;;;;;;3.05;0.80;;;17.40;97.10;;;;;;4993226;28;20042;-79
2022/05/12 11:06:28;;;;;;;2.90;1.55;;;17.40;93.10;;;;;;5000023;28;20108;-79
2022/05/12 11:09:05;;;;;;;3.15;1.17;;;17.40;93.50;;;;;;4996252;28;20494;-79
2022/05/12 11:11:39;;;;;;;2.42;1.30;;;17.30;91.90;;;;;;5005293;28;20054;-79
2022/05/12 11:14:19;;;;;;;4.43;2.00;;;17.20;94.60;;;;;;5009648;28;20056;-77
2022/05/12 11:17:06;;;;;;;1.00;0.90;;;17.30;92.20;;;;;;5006171;28;20418;-78
2022/05/12 11:19:32;;;;;;;1.55;0.90;;;17.40;87.00;;;;;;5000582;28;20054;-79
2022/05/12 11:22:13;;;;;;;4.10;0.77;;;17.60;90.60;;;;;;4993664;28;20558;-79
2022/05/12 11:25:05;;;;;;;5.25;1.00;;;17.60;85.40;;;;;;4988700;28;20104;-81
2022/05/12 11:29:41;;;;;;;2.90;1.02;;;17.70;79.90;;;;;;5005423;28;20042;-73
2022/05/12 11:30:47;;;;;;;4.22;1.38;;;17.70;76.70;;;;;;4996210;28;20054;-78
2022/05/12 11:33:31;;;;;;;1.30;0.90;;;17.90;83.00;;;;;;4993596;28;20058;-78
2022/05/12 11:35:57;;;;;;;3.30;1.08;;;17.90;86.20;;;;;;4993142;28;20058;-79
2022/05/12 11:38:39;;;;;;;2.40;1.25;;;17.90;79.80;;;;;;4996013;28;20466;-79
2022/05/12 11:41:20;;;;;;;3.47;1.13;;;17.90;79.10;;;;;;5012014;28;20133;-78
2022/05/12 11:46:41;;;;;;;3.63;1.10;;;17.70;76.90;;;;;;5011489;28;20125;-78
2022/05/12 11:49:16;;;;;;;1.77;1.02;;;17.50;82.00;;;;;;4996133;28;20541;-78
2022/05/12 11:52:20;;;;;;;2.95;1.20;;;17.50;85.20;;;;;;5004918;28;20494;-78
2022/05/12 11:54:57;;;;;;;2.42;1.00;;;17.60;78.10;;;;;;4993671;28;20093;-79
2022/05/12 11:57:32;;;;;;;;;;;17.60;79.20;;;;;;4992111;28;20069;-78
2022/05/12 12:00:01;;;;;;;2.25;1.38;;;17.80;79.20;;;;;;4993124;28;19929;-77
2022/05/12 12:02:29;;;;;;;3.28;1.38;;;18.20;75.20;;;;;;4996115;28;20041;-80
2022/05/12 12:05:10;;;;;;;3.75;1.20;;;18.50;77.30;;;;;;5011755;28;20054;-81
2022/05/12 12:07:39;;;;;;;4.00;1.38;;;18.60;71.50;;;;;;4994547;28;20054;-79
2022/05/12 12:10:23;;;;;;;1.83;1.40;;;18.40;73.10;;;;;;5009502;28;20556;-80
2022/05/12 12:13:03;;;;;;;4.05;1.40;;;18.30;73.90;;;;;;5000319;28;20050;-79
2022/05/12 12:15:35;;;;;;;1.65;1.30;;;18.30;74.70;;;;;;5006378;28;20549;-80
2022/05/12 12:18:25;;;;;;;5.60;1.40;;;18.70;73.40;;;;;;4993158;28;20054;-80
2022/05/12 12:20:59;;;;;;;2.80;0.90;;;19.10;76.50;;;;;;4994462;28;20057;-80
2022/05/12 12:23:36;;;;;;;2.13;1.10;;;19.50;73.20;;;;;;5002413;28;20045;-81
2022/05/12 12:26:05;;;;;;;;;;;19.90;71.30;;;;;;5002924;28;20122;-80
2022/05/12 12:28:53;;;;;;;2.70;1.30;;;19.90;66.30;;;;;;4991609;28;20391;-81
2022/05/12 12:31:37;;;;;;;1.73;1.23;;;19.90;64.00;;;;;;4990996;28;20050;-80
2022/05/12 12:34:21;;;;;;;1.73;1.10;;;19.90;69.70;;;;;;5008258;28;20054;-77
2022/05/12 12:36:49;;;;;;;2.97;1.35;;;19.80;70.30;;;;;;5005311;28;20050;-78
2022/05/12 12:39:43;;;;;;;1.70;1.40;;;19.80;67.80;;;;;;4992867;28;20051;-77
2022/05/12 12:42:30;;;;;;;1.92;0.90;;;20.00;65.60;;;;;;4991210;28;20510;-78
2022/05/12 12:45:04;;;;;;;7.03;1.33;;;20.00;64.00;;;;;;5003851;28;20553;-78
2022/05/12 12:48:00;;;;;;;2.58;1.05;;;20.30;68.00;;;;;;5011161;28;20050;-79
2022/05/12 12:50:36;;;;;;;1.10;0.93;;;20.60;61.80;;;;;;5005588;28;20065;-80
2022/05/12 12:53:02;;;;;;;2.25;1.20;;;20.60;63.70;;;;;;4992520;28;20094;-76
2022/05/12 12:58:46;;;;;;;3.75;1.00;;;21.10;60.60;;;;;;4999292;28;19928;-81
2022/05/12 13:01:17;;;;;;;1.80;0.80;;;21.10;57.00;;;;;;5010988;28;20559;-79
2022/05/12 13:03:57;;;;;;;6.15;0.80;;;20.80;59.80;;;;;;4990585;28;20054;-78
2022/05/12 13:06:29;;;;;;;1.20;0.80;;;20.50;57.20;;;;;;4993353;28;20506;-79
2022/05/12 13:09:03;;;;;;;1.30;0.65;;;20.50;59.60;;;;;;5011046;28;20072;-78
2022/05/12 13:11:29;;;;;;;3.10;1.10;;;21.00;59.70;;;;;;5008981;28;20119;-78
2022/05/12 13:13:56;;;;;;;2.28;0.90;;;21.30;59.10;;;;;;5010951;28;20053;-78
2022/05/12 13:16:29;;;;;;;3.45;1.00;;;21.30;57.70;;;;;;5010312;28;20049;-78
2022/05/12 13:18:55;;;;;;;1.10;0.90;;;21.20;55.90;;;;;;5010573;28;20042;-78
2022/05/12 13:21:32;;;;;;;1.65;0.70;;;21.30;56.30;;;;;;4990350;28;20051;-78
2022/05/12 13:24:32;;;;;;;2.47;0.88;;;21.40;55.70;;;;;;5010935;28;20065;-78
2022/05/12 13:27:04;;;;;;;2.67;0.98;;;21.30;54.20;;;;;;4993171;28;20108;-78
2022/05/12 13:29:37;;;;;;;3.20;1.30;;;20.90;55.20;;;;;;4999450;28;20062;-77
2022/05/12 13:32:11;;;;;;;1.58;1.40;;;21.10;55.80;;;;;;4991148;28;20042;-77
2022/05/12 13:34:38;;;;;;;2.50;0.93;;;21.60;55.80;;;;;;4990417;28;20046;-78
2022/05/12 13:37:17;;;;;;;3.58;1.05;;;21.90;55.20;;;;;;4991212;28;20055;-78
2022/05/12 13:39:50;;;;;;;2.75;1.02;;;21.90;55.00;;;;;;4994512;28;20503;-77